sensor_id;sensor_type;location;lat;lon;timestamp;P1;durP1;ratioP1;P2;durP2;ratioP2
8361;SDS011;4218;48.326;14.304;2022-08-21T00:01:33;2.30;;;2.20;;
8361;SDS011;4218;48.326;14.304;2022-08-21T00:04:03;2.40;;;2.23;;
8361;SDS011;4218;48.326;14.304;2022-08-21T00:06:30;2.73;;;2.53;;
8361;SDS011;4218;48.326;14.304;2022-08-21T00:08:57;2.47;;;2.27;;
8361;SDS011;4218;48.326;14.304;2022-08-21T00:11:23;2.50;;;2.30;;
8361;SDS011;4218;48.326;14.304;2022-08-21T00:13:48;2.20;;;2.10;;
8361;SDS011;4218;48.326;14.304;2022-08-21T00:16:14;2.83;;;2.63;;
8361;SDS011;4218;48.326;14.304;2022-08-21T00:18:39;2.40;;;2.20;;
8361;SDS011;4218;48.326;14.304;2022-08-21T00:21:06;1.73;;;1.73;;
8361;SDS011;4218;48.326;14.304;2022-08-21T00:23:32;2.87;;;2.67;;
8361;SDS011;4218;48.326;14.304;2022-08-21T00:25:59;3.37;;;2.90;;
8361;SDS011;4218;48.326;14.304;2022-08-21T00:28:24;2.83;;;2.63;;
8361;SDS011;4218;48.326;14.304;2022-08-21T00:30:50;2.73;;;2.43;;
8361;SDS011;4218;48.326;14.304;2022-08-21T00:33:15;3.30;;;3.10;;
8361;SDS011;4218;48.326;14.304;2022-08-21T00:35:41;2.87;;;2.67;;
8361;SDS011;4218;48.326;14.304;2022-08-21T00:38:08;2.50;;;2.37;;
8361;SDS011;4218;48.326;14.304;2022-08-21T00:43:30;3.00;;;2.80;;
8361;SDS011;4218;48.326;14.304;2022-08-21T00:45:58;3.07;;;2.73;;
8361;SDS011;4218;48.326;14.304;2022-08-21T00:48:24;2.63;;;2.47;;
8361;SDS011;4218;48.326;14.304;2022-08-21T00:50:58;2.73;;;2.53;;
8361;SDS011;4218;48.326;14.304;2022-08-21T00:53:29;2.40;;;2.20;;
8361;SDS011;4218;48.326;14.304;2022-08-21T00:55:58;2.83;;;2.63;;
8361;SDS011;4218;48.326;14.304;2022-08-21T00:58:27;2.97;;;2.77;;
8361;SDS011;4218;48.326;14.304;2022-08-21T01:00:55;3.30;;;2.77;;
8361;SDS011;4218;48.326;14.304;2022-08-21T01:03:23;3.33;;;2.53;;
8361;SDS011;4218;48.326;14.304;2022-08-21T01:05:50;3.03;;;2.83;;
8361;SDS011;4218;48.326;14.304;2022-08-21T01:08:16;3.37;;;3.07;;
8361;SDS011;4218;48.326;14.304;2022-08-21T01:10:43;3.03;;;2.83;;
8361;SDS011;4218;48.326;14.304;2022-08-21T01:13:10;3.20;;;2.83;;
8361;SDS011;4218;48.326;14.304;2022-08-21T01:15:39;5.17;;;3.27;;
8361;SDS011;4218;48.326;14.304;2022-08-21T01:18:08;3.00;;;2.80;;
8361;SDS011;4218;48.326;14.304;2022-08-21T01:20:36;3.43;;;3.23;;
8361;SDS011;4218;48.326;14.304;2022-08-21T01:23:04;3.30;;;3.10;;
8361;SDS011;4218;48.326;14.304;2022-08-21T01:25:31;3.30;;;3.00;;
8361;SDS011;4218;48.326;14.304;2022-08-21T01:27:57;3.50;;;3.30;;
8361;SDS011;4218;48.326;14.304;2022-08-21T01:30:27;3.53;;;3.20;;
8361;SDS011;4218;48.326;14.304;2022-08-21T01:32:54;3.63;;;3.33;;
8361;SDS011;4218;48.326;14.304;2022-08-21T01:35:20;3.30;;;3.00;;
8361;SDS011;4218;48.326;14.304;2022-08-21T01:37:47;3.33;;;3.07;;
8361;SDS011;4218;48.326;14.304;2022-08-21T01:40:14;3.70;;;3.40;;
8361;SDS011;4218;48.326;14.304;2022-08-21T01:42:41;3.03;;;2.83;;
8361;SDS011;4218;48.326;14.304;2022-08-21T01:45:07;3.57;;;3.27;;
8361;SDS011;4218;48.326;14.304;2022-08-21T01:47:33;2.90;;;2.70;;
8361;SDS011;4218;48.326;14.304;2022-08-21T01:49:59;4.63;;;3.10;;
8361;SDS011;4218;48.326;14.304;2022-08-21T01:52:25;3.50;;;3.20;;
8361;SDS011;4218;48.326;14.304;2022-08-21T01:54:50;3.57;;;3.30;;
8361;SDS011;4218;48.326;14.304;2022-08-21T01:57:16;3.50;;;3.20;;
8361;SDS011;4218;48.326;14.304;2022-08-21T01:59:41;3.57;;;3.27;;
8361;SDS011;4218;48.326;14.304;2022-08-21T02:02:07;3.70;;;3.37;;
8361;SDS011;4218;48.326;14.304;2022-08-21T02:04:33;3.07;;;2.77;;
8361;SDS011;4218;48.326;14.304;2022-08-21T02:06:59;3.23;;;3.03;;
8361;SDS011;4218;48.326;14.304;2022-08-21T02:09:25;3.93;;;3.53;;
8361;SDS011;4218;48.326;14.304;2022-08-21T02:11:51;3.60;;;3.30;;
8361;SDS011;4218;48.326;14.304;2022-08-21T02:14:17;3.50;;;3.20;;
8361;SDS011;4218;48.326;14.304;2022-08-21T02:16:44;3.60;;;3.30;;
8361;SDS011;4218;48.326;14.304;2022-08-21T02:19:10;4.50;;;4.10;;
8361;SDS011;4218;48.326;14.304;2022-08-21T02:21:37;4.03;;;3.73;;
8361;SDS011;4218;48.326;14.304;2022-08-21T02:24:03;3.70;;;3.40;;
8361;SDS011;4218;48.326;14.304;2022-08-21T02:26:29;4.43;;;3.60;;
8361;SDS011;4218;48.326;14.304;2022-08-21T02:28:54;4.33;;;3.97;;
8361;SDS011;4218;48.326;14.304;2022-08-21T02:31:20;3.47;;;3.17;;
8361;SDS011;4218;48.326;14.304;2022-08-21T02:33:45;3.67;;;3.37;;
8361;SDS011;4218;48.326;14.304;2022-08-21T02:36:11;3.40;;;3.10;;
8361;SDS011;4218;48.326;14.304;2022-08-21T02:38:37;3.77;;;3.47;;
8361;SDS011;4218;48.326;14.304;2022-08-21T02:41:05;4.30;;;3.90;;
8361;SDS011;4218;48.326;14.304;2022-08-21T02:43:33;4.07;;;3.67;;
8361;SDS011;4218;48.326;14.304;2022-08-21T02:45:59;3.90;;;3.60;;
8361;SDS011;4218;48.326;14.304;2022-08-21T02:48:29;4.33;;;3.93;;
8361;SDS011;4218;48.326;14.304;2022-08-21T02:51:06;4.70;;;3.60;;
8361;SDS011;4218;48.326;14.304;2022-08-21T02:53:34;3.10;;;2.90;;
8361;SDS011;4218;48.326;14.304;2022-08-21T02:56:01;3.90;;;3.57;;
8361;SDS011;4218;48.326;14.304;2022-08-21T02:58:30;3.50;;;3.20;;
8361;SDS011;4218;48.326;14.304;2022-08-21T03:01:00;3.40;;;3.10;;
8361;SDS011;4218;48.326;14.304;2022-08-21T03:03:27;3.57;;;3.27;;
8361;SDS011;4218;48.326;14.304;2022-08-21T03:05:54;3.37;;;3.00;;
8361;SDS011;4218;48.326;14.304;2022-08-21T03:08:21;3.87;;;3.53;;
8361;SDS011;4218;48.326;14.304;2022-08-21T03:10:48;3.37;;;3.17;;
8361;SDS011;4218;48.326;14.304;2022-08-21T03:13:16;3.20;;;2.80;;
8361;SDS011;4218;48.326;14.304;2022-08-21T03:15:42;3.70;;;3.40;;
8361;SDS011;4218;48.326;14.304;2022-08-21T03:18:09;3.83;;;3.53;;
8361;SDS011;4218;48.326;14.304;2022-08-21T03:20:36;3.57;;;3.27;;
8361;SDS011;4218;48.326;14.304;2022-08-21T03:23:05;3.77;;;3.47;;
8361;SDS011;4218;48.326;14.304;2022-08-21T03:25:31;3.90;;;3.60;;
8361;SDS011;4218;48.326;14.304;2022-08-21T03:28:02;3.97;;;3.40;;
8361;SDS011;4218;48.326;14.304;2022-08-21T03:30:28;4.90;;;3.90;;
8361;SDS011;4218;48.326;14.304;2022-08-21T03:32:56;3.73;;;3.43;;
8361;SDS011;4218;48.326;14.304;2022-08-21T03:35:23;3.67;;;3.37;;
8361;SDS011;4218;48.326;14.304;2022-08-21T03:37:48;4.10;;;3.23;;
8361;SDS011;4218;48.326;14.304;2022-08-21T03:40:15;4.40;;;4.00;;
8361;SDS011;4218;48.326;14.304;2022-08-21T03:42:42;4.27;;;3.83;;
8361;SDS011;4218;48.326;14.304;2022-08-21T03:45:08;4.50;;;4.10;;
8361;SDS011;4218;48.326;14.304;2022-08-21T03:47:34;5.03;;;3.80;;
8361;SDS011;4218;48.326;14.304;2022-08-21T03:50:00;4.70;;;4.20;;
8361;SDS011;4218;48.326;14.304;2022-08-21T03:52:29;4.53;;;3.70;;
8361;SDS011;4218;48.326;14.304;2022-08-21T03:54:55;4.27;;;3.87;;
8361;SDS011;4218;48.326;14.304;2022-08-21T03:57:20;4.33;;;3.93;;
8361;SDS011;4218;48.326;14.304;2022-08-21T03:59:46;4.50;;;4.10;;
8361;SDS011;4218;48.326;14.304;2022-08-21T04:02:12;4.17;;;3.77;;
8361;SDS011;4218;48.326;14.304;2022-08-21T04:04:42;3.90;;;3.50;;
8361;SDS011;4218;48.326;14.304;2022-08-21T04:07:08;4.47;;;4.03;;
8361;SDS011;4218;48.326;14.304;2022-08-21T04:09:34;4.47;;;4.03;;
8361;SDS011;4218;48.326;14.304;2022-08-21T04:11:59;4.80;;;4.40;;
8361;SDS011;4218;48.326;14.304;2022-08-21T04:14:25;5.67;;;4.10;;
8361;SDS011;4218;48.326;14.304;2022-08-21T04:16:51;4.30;;;3.90;;
8361;SDS011;4218;48.326;14.304;2022-08-21T04:19:16;3.93;;;3.53;;
8361;SDS011;4218;48.326;14.304;2022-08-21T04:21:42;3.47;;;3.23;;
8361;SDS011;4218;48.326;14.304;2022-08-21T04:24:09;4.77;;;3.87;;
8361;SDS011;4218;48.326;14.304;2022-08-21T04:26:35;3.93;;;3.47;;
8361;SDS011;4218;48.326;14.304;2022-08-21T04:29:02;3.83;;;3.57;;
8361;SDS011;4218;48.326;14.304;2022-08-21T04:31:31;4.57;;;4.10;;
8361;SDS011;4218;48.326;14.304;2022-08-21T04:33:57;5.03;;;4.60;;
8361;SDS011;4218;48.326;14.304;2022-08-21T04:36:23;3.83;;;3.53;;
8361;SDS011;4218;48.326;14.304;2022-08-21T04:38:49;3.83;;;3.53;;
8361;SDS011;4218;48.326;14.304;2022-08-21T04:41:15;5.00;;;4.43;;
8361;SDS011;4218;48.326;14.304;2022-08-21T04:43:41;5.00;;;4.00;;
8361;SDS011;4218;48.326;14.304;2022-08-21T04:46:07;4.97;;;4.47;;
8361;SDS011;4218;48.326;14.304;2022-08-21T04:48:33;4.80;;;4.27;;
8361;SDS011;4218;48.326;14.304;2022-08-21T04:53:40;5.73;;;4.73;;
8361;SDS011;4218;48.326;14.304;2022-08-21T04:56:22;4.83;;;4.33;;
8361;SDS011;4218;48.326;14.304;2022-08-21T04:58:50;8.17;;;4.93;;
8361;SDS011;4218;48.326;14.304;2022-08-21T05:01:21;5.17;;;4.50;;
8361;SDS011;4218;48.326;14.304;2022-08-21T05:03:50;5.07;;;4.60;;
8361;SDS011;4218;48.326;14.304;2022-08-21T05:06:20;4.97;;;4.50;;
8361;SDS011;4218;48.326;14.304;2022-08-21T05:08:47;5.50;;;5.00;;
8361;SDS011;4218;48.326;14.304;2022-08-21T05:11:14;4.37;;;3.97;;
8361;SDS011;4218;48.326;14.304;2022-08-21T05:13:40;5.77;;;4.60;;
8361;SDS011;4218;48.326;14.304;2022-08-21T05:16:08;4.43;;;3.93;;
8361;SDS011;4218;48.326;14.304;2022-08-21T05:18:33;4.67;;;4.17;;
8361;SDS011;4218;48.326;14.304;2022-08-21T05:20:59;6.83;;;4.23;;
8361;SDS011;4218;48.326;14.304;2022-08-21T05:23:24;4.57;;;4.17;;
8361;SDS011;4218;48.326;14.304;2022-08-21T05:25:52;4.50;;;4.03;;
8361;SDS011;4218;48.326;14.304;2022-08-21T05:28:18;4.93;;;4.00;;
8361;SDS011;4218;48.326;14.304;2022-08-21T05:30:44;5.50;;;4.33;;
8361;SDS011;4218;48.326;14.304;2022-08-21T05:33:09;4.80;;;4.40;;
8361;SDS011;4218;48.326;14.304;2022-08-21T05:35:35;5.23;;;4.40;;
8361;SDS011;4218;48.326;14.304;2022-08-21T05:38:02;5.50;;;5.00;;
8361;SDS011;4218;48.326;14.304;2022-08-21T05:40:28;5.03;;;4.37;;
8361;SDS011;4218;48.326;14.304;2022-08-21T05:42:54;5.03;;;4.63;;
8361;SDS011;4218;48.326;14.304;2022-08-21T05:45:24;5.43;;;4.93;;
8361;SDS011;4218;48.326;14.304;2022-08-21T05:47:54;5.10;;;4.60;;
8361;SDS011;4218;48.326;14.304;2022-08-21T05:50:20;7.00;;;4.83;;
8361;SDS011;4218;48.326;14.304;2022-08-21T05:52:46;6.17;;;4.63;;
8361;SDS011;4218;48.326;14.304;2022-08-21T05:55:11;5.07;;;4.40;;
8361;SDS011;4218;48.326;14.304;2022-08-21T05:57:37;7.03;;;5.47;;
8361;SDS011;4218;48.326;14.304;2022-08-21T06:00:06;6.67;;;5.63;;
8361;SDS011;4218;48.326;14.304;2022-08-21T06:02:37;5.83;;;5.23;;
8361;SDS011;4218;48.326;14.304;2022-08-21T06:05:03;7.60;;;5.97;;
8361;SDS011;4218;48.326;14.304;2022-08-21T06:07:29;6.57;;;5.10;;
8361;SDS011;4218;48.326;14.304;2022-08-21T06:09:55;6.70;;;5.07;;
8361;SDS011;4218;48.326;14.304;2022-08-21T06:12:21;5.47;;;4.97;;
8361;SDS011;4218;48.326;14.304;2022-08-21T06:14:46;6.50;;;5.53;;
8361;SDS011;4218;48.326;14.304;2022-08-21T06:17:12;6.10;;;5.57;;
8361;SDS011;4218;48.326;14.304;2022-08-21T06:19:38;6.57;;;4.97;;
8361;SDS011;4218;48.326;14.304;2022-08-21T06:22:04;7.07;;;5.23;;
8361;SDS011;4218;48.326;14.304;2022-08-21T06:24:30;5.43;;;4.93;;
8361;SDS011;4218;48.326;14.304;2022-08-21T06:26:56;6.23;;;4.93;;
8361;SDS011;4218;48.326;14.304;2022-08-21T06:29:22;5.93;;;5.30;;
8361;SDS011;4218;48.326;14.304;2022-08-21T06:31:49;6.33;;;5.27;;
8361;SDS011;4218;48.326;14.304;2022-08-21T06:34:16;6.33;;;5.67;;
8361;SDS011;4218;48.326;14.304;2022-08-21T06:36:42;5.73;;;5.23;;
8361;SDS011;4218;48.326;14.304;2022-08-21T06:39:08;5.77;;;5.27;;
8361;SDS011;4218;48.326;14.304;2022-08-21T06:41:33;5.70;;;4.20;;
8361;SDS011;4218;48.326;14.304;2022-08-21T06:43:59;5.17;;;4.67;;
8361;SDS011;4218;48.326;14.304;2022-08-21T06:46:26;5.10;;;4.60;;
8361;SDS011;4218;48.326;14.304;2022-08-21T06:48:52;6.27;;;4.60;;
8361;SDS011;4218;48.326;14.304;2022-08-21T06:51:18;6.07;;;5.10;;
8361;SDS011;4218;48.326;14.304;2022-08-21T06:53:44;5.47;;;4.97;;
8361;SDS011;4218;48.326;14.304;2022-08-21T06:56:09;6.33;;;5.33;;
8361;SDS011;4218;48.326;14.304;2022-08-21T06:58:35;4.70;;;4.30;;
8361;SDS011;4218;48.326;14.304;2022-08-21T07:01:01;5.03;;;4.50;;
8361;SDS011;4218;48.326;14.304;2022-08-21T07:03:32;5.30;;;4.80;;
8361;SDS011;4218;48.326;14.304;2022-08-21T07:05:59;5.73;;;4.53;;
8361;SDS011;4218;48.326;14.304;2022-08-21T07:08:25;4.83;;;4.40;;
8361;SDS011;4218;48.326;14.304;2022-08-21T07:10:52;4.73;;;4.33;;
8361;SDS011;4218;48.326;14.304;2022-08-21T07:13:19;5.23;;;4.73;;
8361;SDS011;4218;48.326;14.304;2022-08-21T07:15:45;4.97;;;4.17;;
8361;SDS011;4218;48.326;14.304;2022-08-21T07:18:10;4.53;;;4.13;;
8361;SDS011;4218;48.326;14.304;2022-08-21T07:20:37;5.50;;;4.40;;
8361;SDS011;4218;48.326;14.304;2022-08-21T07:23:05;4.50;;;4.10;;
8361;SDS011;4218;48.326;14.304;2022-08-21T07:25:36;4.60;;;4.20;;
8361;SDS011;4218;48.326;14.304;2022-08-21T07:28:01;5.40;;;4.90;;
8361;SDS011;4218;48.326;14.304;2022-08-21T07:30:27;5.63;;;3.87;;
8361;SDS011;4218;48.326;14.304;2022-08-21T07:32:53;5.13;;;4.60;;
8361;SDS011;4218;48.326;14.304;2022-08-21T07:35:18;6.07;;;5.47;;
8361;SDS011;4218;48.326;14.304;2022-08-21T07:37:44;5.33;;;4.60;;
8361;SDS011;4218;48.326;14.304;2022-08-21T07:40:10;6.13;;;5.40;;
8361;SDS011;4218;48.326;14.304;2022-08-21T07:42:43;5.47;;;4.93;;
8361;SDS011;4218;48.326;14.304;2022-08-21T07:45:10;6.60;;;5.83;;
8361;SDS011;4218;48.326;14.304;2022-08-21T07:47:38;6.43;;;5.77;;
8361;SDS011;4218;48.326;14.304;2022-08-21T07:50:04;5.73;;;4.80;;
8361;SDS011;4218;48.326;14.304;2022-08-21T07:52:30;8.57;;;5.47;;
8361;SDS011;4218;48.326;14.304;2022-08-21T07:54:57;5.80;;;5.27;;
8361;SDS011;4218;48.326;14.304;2022-08-21T07:57:23;5.80;;;5.20;;
8361;SDS011;4218;48.326;14.304;2022-08-21T07:59:48;6.80;;;6.07;;
8361;SDS011;4218;48.326;14.304;2022-08-21T08:02:27;5.20;;;4.70;;
8361;SDS011;4218;48.326;14.304;2022-08-21T08:04:54;6.47;;;5.50;;
8361;SDS011;4218;48.326;14.304;2022-08-21T08:07:19;5.87;;;5.23;;
8361;SDS011;4218;48.326;14.304;2022-08-21T08:09:45;6.00;;;5.27;;
8361;SDS011;4218;48.326;14.304;2022-08-21T08:12:11;5.60;;;4.93;;
8361;SDS011;4218;48.326;14.304;2022-08-21T08:14:36;5.80;;;5.27;;
8361;SDS011;4218;48.326;14.304;2022-08-21T08:17:02;5.67;;;5.17;;
8361;SDS011;4218;48.326;14.304;2022-08-21T08:19:28;6.13;;;4.93;;
8361;SDS011;4218;48.326;14.304;2022-08-21T08:21:53;5.50;;;5.00;;
8361;SDS011;4218;48.326;14.304;2022-08-21T08:24:19;6.70;;;5.80;;
8361;SDS011;4218;48.326;14.304;2022-08-21T08:26:45;6.50;;;5.33;;
8361;SDS011;4218;48.326;14.304;2022-08-21T08:29:11;6.57;;;5.97;;
8361;SDS011;4218;48.326;14.304;2022-08-21T08:31:36;7.10;;;5.63;;
8361;SDS011;4218;48.326;14.304;2022-08-21T08:34:01;7.10;;;5.40;;
8361;SDS011;4218;48.326;14.304;2022-08-21T08:36:31;5.37;;;4.87;;
8361;SDS011;4218;48.326;14.304;2022-08-21T08:38:59;5.17;;;4.67;;
8361;SDS011;4218;48.326;14.304;2022-08-21T08:41:26;5.30;;;4.73;;
8361;SDS011;4218;48.326;14.304;2022-08-21T08:43:53;4.70;;;4.30;;
8361;SDS011;4218;48.326;14.304;2022-08-21T08:46:22;4.93;;;3.93;;
8361;SDS011;4218;48.326;14.304;2022-08-21T08:48:57;8.07;;;4.80;;
8361;SDS011;4218;48.326;14.304;2022-08-21T08:51:48;4.73;;;4.33;;
8361;SDS011;4218;48.326;14.304;2022-08-21T08:54:30;5.37;;;4.87;;
8361;SDS011;4218;48.326;14.304;2022-08-21T08:57:02;4.93;;;4.40;;
8361;SDS011;4218;48.326;14.304;2022-08-21T08:59:35;5.17;;;4.67;;
8361;SDS011;4218;48.326;14.304;2022-08-21T09:02:05;4.43;;;4.03;;
8361;SDS011;4218;48.326;14.304;2022-08-21T09:04:31;5.20;;;4.77;;
8361;SDS011;4218;48.326;14.304;2022-08-21T09:09:51;7.00;;;3.57;;
8361;SDS011;4218;48.326;14.304;2022-08-21T09:15:07;5.13;;;4.63;;
8361;SDS011;4218;48.326;14.304;2022-08-21T09:23:19;4.50;;;4.10;;
8361;SDS011;4218;48.326;14.304;2022-08-21T09:26:08;4.93;;;4.43;;
8361;SDS011;4218;48.326;14.304;2022-08-21T09:28:41;7.80;;;4.83;;
8361;SDS011;4218;48.326;14.304;2022-08-21T09:31:08;6.33;;;5.60;;
8361;SDS011;4218;48.326;14.304;2022-08-21T09:33:46;6.63;;;4.97;;
8361;SDS011;4218;48.326;14.304;2022-08-21T09:36:12;5.30;;;4.80;;
8361;SDS011;4218;48.326;14.304;2022-08-21T09:38:52;5.10;;;4.63;;
8361;SDS011;4218;48.326;14.304;2022-08-21T09:41:27;5.20;;;4.70;;
8361;SDS011;4218;48.326;14.304;2022-08-21T09:43:54;5.57;;;5.07;;
8361;SDS011;4218;48.326;14.304;2022-08-21T09:46:21;6.03;;;5.43;;
8361;SDS011;4218;48.326;14.304;2022-08-21T09:48:52;6.20;;;5.60;;
8361;SDS011;4218;48.326;14.304;2022-08-21T09:51:22;8.27;;;5.53;;
8361;SDS011;4218;48.326;14.304;2022-08-21T09:53:56;6.50;;;5.83;;
8361;SDS011;4218;48.326;14.304;2022-08-21T09:59:55;6.47;;;5.80;;
8361;SDS011;4218;48.326;14.304;2022-08-21T10:02:34;7.00;;;5.47;;
8361;SDS011;4218;48.326;14.304;2022-08-21T10:05:07;5.80;;;4.87;;
8361;SDS011;4218;48.326;14.304;2022-08-21T10:07:41;6.43;;;5.83;;
8361;SDS011;4218;48.326;14.304;2022-08-21T10:11:04;5.70;;;5.20;;
8361;SDS011;4218;48.326;14.304;2022-08-21T10:16:42;5.57;;;4.97;;
8361;SDS011;4218;48.326;14.304;2022-08-21T10:19:26;7.73;;;5.33;;
8361;SDS011;4218;48.326;14.304;2022-08-21T10:25:26;2.73;;;2.63;;
8361;SDS011;4218;48.326;14.304;2022-08-21T10:35:45;1.20;;;1.20;;
8361;SDS011;4218;48.326;14.304;2022-08-21T10:38:49;1.17;;;1.17;;
8361;SDS011;4218;48.326;14.304;2022-08-21T10:44:55;1.70;;;1.60;;
8361;SDS011;4218;48.326;14.304;2022-08-21T10:47:41;1.67;;;1.57;;
8361;SDS011;4218;48.326;14.304;2022-08-21T10:50:30;1.47;;;1.37;;
8361;SDS011;4218;48.326;14.304;2022-08-21T10:53:07;2.13;;;2.03;;
8361;SDS011;4218;48.326;14.304;2022-08-21T10:55:58;2.17;;;1.97;;
8361;SDS011;4218;48.326;14.304;2022-08-21T10:58:40;1.83;;;1.73;;
8361;SDS011;4218;48.326;14.304;2022-08-21T11:04:09;1.70;;;1.60;;
8361;SDS011;4218;48.326;14.304;2022-08-21T11:06:41;1.77;;;1.67;;
8361;SDS011;4218;48.326;14.304;2022-08-21T11:09:16;1.60;;;1.50;;
8361;SDS011;4218;48.326;14.304;2022-08-21T11:11:46;1.80;;;1.70;;
8361;SDS011;4218;48.326;14.304;2022-08-21T11:14:48;1.30;;;1.30;;
8361;SDS011;4218;48.326;14.304;2022-08-21T11:17:51;1.70;;;1.60;;
8361;SDS011;4218;48.326;14.304;2022-08-21T11:20:24;1.90;;;1.80;;
8361;SDS011;4218;48.326;14.304;2022-08-21T11:23:15;1.30;;;1.30;;
8361;SDS011;4218;48.326;14.304;2022-08-21T11:25:49;1.80;;;1.70;;
8361;SDS011;4218;48.326;14.304;2022-08-21T11:28:23;2.93;;;2.73;;
8361;SDS011;4218;48.326;14.304;2022-08-21T11:50:28;1.97;;;1.87;;
8361;SDS011;4218;48.326;14.304;2022-08-21T11:52:57;1.80;;;1.70;;
8361;SDS011;4218;48.326;14.304;2022-08-21T11:55:36;1.70;;;1.60;;
8361;SDS011;4218;48.326;14.304;2022-08-21T11:58:07;1.40;;;1.40;;
8361;SDS011;4218;48.326;14.304;2022-08-21T12:00:42;1.87;;;1.77;;
8361;SDS011;4218;48.326;14.304;2022-08-21T12:03:33;3.17;;;1.40;;
8361;SDS011;4218;48.326;14.304;2022-08-21T12:06:07;1.90;;;1.80;;
8361;SDS011;4218;48.326;14.304;2022-08-21T12:09:27;1.73;;;1.63;;
8361;SDS011;4218;48.326;14.304;2022-08-21T12:11:47;1.33;;;1.33;;
8361;SDS011;4218;48.326;14.304;2022-08-21T12:14:16;1.43;;;1.43;;
8361;SDS011;4218;48.326;14.304;2022-08-21T12:16:44;1.20;;;1.20;;
8361;SDS011;4218;48.326;14.304;2022-08-21T12:21:51;1.73;;;1.63;;
8361;SDS011;4218;48.326;14.304;2022-08-21T12:24:37;1.53;;;1.53;;
8361;SDS011;4218;48.326;14.304;2022-08-21T12:29:45;1.40;;;1.33;;
8361;SDS011;4218;48.326;14.304;2022-08-21T12:34:40;1.20;;;1.20;;
8361;SDS011;4218;48.326;14.304;2022-08-21T12:39:57;1.60;;;1.60;;
8361;SDS011;4218;48.326;14.304;2022-08-21T12:42:27;1.30;;;1.30;;
8361;SDS011;4218;48.326;14.304;2022-08-21T12:45:05;1.30;;;1.30;;
8361;SDS011;4218;48.326;14.304;2022-08-21T12:50:46;1.20;;;1.20;;
8361;SDS011;4218;48.326;14.304;2022-08-21T12:53:29;1.43;;;1.43;;
8361;SDS011;4218;48.326;14.304;2022-08-21T12:56:01;1.53;;;1.43;;
8361;SDS011;4218;48.326;14.304;2022-08-21T12:58:29;1.57;;;1.30;;
8361;SDS011;4218;48.326;14.304;2022-08-21T13:00:59;1.20;;;1.20;;
8361;SDS011;4218;48.326;14.304;2022-08-21T13:03:28;1.60;;;1.50;;
8361;SDS011;4218;48.326;14.304;2022-08-21T13:05:55;1.10;;;1.10;;
8361;SDS011;4218;48.326;14.304;2022-08-21T13:08:22;1.43;;;1.33;;
8361;SDS011;4218;48.326;14.304;2022-08-21T13:10:56;3.70;;;1.20;;
8361;SDS011;4218;48.326;14.304;2022-08-21T13:13:25;1.30;;;1.30;;
8361;SDS011;4218;48.326;14.304;2022-08-21T13:16:00;1.20;;;1.20;;
8361;SDS011;4218;48.326;14.304;2022-08-21T13:18:30;1.37;;;1.33;;
8361;SDS011;4218;48.326;14.304;2022-08-21T13:21:14;0.97;;;0.97;;
8361;SDS011;4218;48.326;14.304;2022-08-21T13:23:40;1.10;;;1.10;;
8361;SDS011;4218;48.326;14.304;2022-08-21T13:26:17;1.20;;;1.20;;
8361;SDS011;4218;48.326;14.304;2022-08-21T13:28:46;1.27;;;1.27;;
8361;SDS011;4218;48.326;14.304;2022-08-21T13:31:15;1.63;;;1.53;;
8361;SDS011;4218;48.326;14.304;2022-08-21T13:33:45;1.33;;;1.33;;
8361;SDS011;4218;48.326;14.304;2022-08-21T13:36:11;1.00;;;1.00;;
8361;SDS011;4218;48.326;14.304;2022-08-21T13:38:42;1.23;;;1.23;;
8361;SDS011;4218;48.326;14.304;2022-08-21T13:41:13;1.20;;;1.20;;
8361;SDS011;4218;48.326;14.304;2022-08-21T13:44:32;1.30;;;1.20;;
8361;SDS011;4218;48.326;14.304;2022-08-21T13:46:51;1.23;;;1.23;;
8361;SDS011;4218;48.326;14.304;2022-08-21T13:49:19;1.37;;;1.27;;
8361;SDS011;4218;48.326;14.304;2022-08-21T13:51:47;1.30;;;1.30;;
8361;SDS011;4218;48.326;14.304;2022-08-21T13:54:20;1.27;;;1.27;;
8361;SDS011;4218;48.326;14.304;2022-08-21T13:56:50;1.03;;;1.03;;
8361;SDS011;4218;48.326;14.304;2022-08-21T13:59:23;1.00;;;1.00;;
8361;SDS011;4218;48.326;14.304;2022-08-21T14:01:55;1.13;;;1.13;;
8361;SDS011;4218;48.326;14.304;2022-08-21T14:04:30;1.30;;;1.30;;
8361;SDS011;4218;48.326;14.304;2022-08-21T14:06:59;1.17;;;1.17;;
8361;SDS011;4218;48.326;14.304;2022-08-21T14:09:27;1.20;;;1.20;;
8361;SDS011;4218;48.326;14.304;2022-08-21T14:11:59;1.10;;;1.10;;
8361;SDS011;4218;48.326;14.304;2022-08-21T14:14:29;1.30;;;1.30;;
8361;SDS011;4218;48.326;14.304;2022-08-21T14:17:00;1.23;;;1.23;;
8361;SDS011;4218;48.326;14.304;2022-08-21T14:19:38;1.10;;;1.10;;
8361;SDS011;4218;48.326;14.304;2022-08-21T14:25:04;1.13;;;1.13;;
8361;SDS011;4218;48.326;14.304;2022-08-21T14:27:31;1.00;;;1.00;;
8361;SDS011;4218;48.326;14.304;2022-08-21T14:30:03;1.10;;;1.10;;
8361;SDS011;4218;48.326;14.304;2022-08-21T14:32:38;1.23;;;1.23;;
8361;SDS011;4218;48.326;14.304;2022-08-21T14:35:07;1.50;;;1.40;;
8361;SDS011;4218;48.326;14.304;2022-08-21T14:37:33;1.40;;;1.30;;
8361;SDS011;4218;48.326;14.304;2022-08-21T14:39:58;1.23;;;1.23;;
8361;SDS011;4218;48.326;14.304;2022-08-21T14:42:24;1.30;;;1.30;;
8361;SDS011;4218;48.326;14.304;2022-08-21T14:44:50;1.83;;;1.73;;
8361;SDS011;4218;48.326;14.304;2022-08-21T14:47:16;1.70;;;1.70;;
8361;SDS011;4218;48.326;14.304;2022-08-21T14:49:41;1.77;;;1.67;;
8361;SDS011;4218;48.326;14.304;2022-08-21T14:52:07;2.23;;;2.10;;
8361;SDS011;4218;48.326;14.304;2022-08-21T14:54:33;2.33;;;2.13;;
8361;SDS011;4218;48.326;14.304;2022-08-21T14:57:00;2.43;;;2.33;;
8361;SDS011;4218;48.326;14.304;2022-08-21T14:59:29;2.17;;;2.07;;
8361;SDS011;4218;48.326;14.304;2022-08-21T15:01:55;2.20;;;2.10;;
8361;SDS011;4218;48.326;14.304;2022-08-21T15:04:21;2.67;;;2.53;;
8361;SDS011;4218;48.326;14.304;2022-08-21T15:06:46;2.30;;;2.20;;
8361;SDS011;4218;48.326;14.304;2022-08-21T15:09:11;2.40;;;2.20;;
8361;SDS011;4218;48.326;14.304;2022-08-21T15:11:37;1.90;;;1.80;;
8361;SDS011;4218;48.326;14.304;2022-08-21T15:14:03;2.40;;;2.20;;
8361;SDS011;4218;48.326;14.304;2022-08-21T15:16:33;2.30;;;2.20;;
8361;SDS011;4218;48.326;14.304;2022-08-21T15:18:58;2.20;;;2.10;;
8361;SDS011;4218;48.326;14.304;2022-08-21T15:21:24;2.60;;;2.40;;
8361;SDS011;4218;48.326;14.304;2022-08-21T15:23:50;2.40;;;2.20;;
8361;SDS011;4218;48.326;14.304;2022-08-21T15:26:15;2.33;;;2.17;;
8361;SDS011;4218;48.326;14.304;2022-08-21T15:28:40;2.07;;;1.97;;
8361;SDS011;4218;48.326;14.304;2022-08-21T15:31:07;2.43;;;2.27;;
8361;SDS011;4218;48.326;14.304;2022-08-21T15:33:32;2.40;;;2.20;;
8361;SDS011;4218;48.326;14.304;2022-08-21T15:35:58;3.30;;;2.30;;
8361;SDS011;4218;48.326;14.304;2022-08-21T15:38:24;2.53;;;2.37;;
8361;SDS011;4218;48.326;14.304;2022-08-21T15:40:50;2.33;;;2.23;;
8361;SDS011;4218;48.326;14.304;2022-08-21T15:43:27;2.30;;;2.10;;
8361;SDS011;4218;48.326;14.304;2022-08-21T15:45:55;2.10;;;2.00;;
8361;SDS011;4218;48.326;14.304;2022-08-21T15:48:21;2.27;;;2.17;;
8361;SDS011;4218;48.326;14.304;2022-08-21T15:50:46;2.17;;;2.07;;
8361;SDS011;4218;48.326;14.304;2022-08-21T15:53:12;2.17;;;2.07;;
8361;SDS011;4218;48.326;14.304;2022-08-21T15:55:38;2.40;;;2.30;;
8361;SDS011;4218;48.326;14.304;2022-08-21T15:58:04;2.83;;;2.63;;
8361;SDS011;4218;48.326;14.304;2022-08-21T16:00:30;2.40;;;2.30;;
8361;SDS011;4218;48.326;14.304;2022-08-21T16:02:59;2.93;;;2.30;;
8361;SDS011;4218;48.326;14.304;2022-08-21T16:05:25;2.23;;;2.13;;
8361;SDS011;4218;48.326;14.304;2022-08-21T16:07:51;2.20;;;2.10;;
8361;SDS011;4218;48.326;14.304;2022-08-21T16:10:18;2.10;;;2.00;;
8361;SDS011;4218;48.326;14.304;2022-08-21T16:12:47;3.80;;;2.40;;
8361;SDS011;4218;48.326;14.304;2022-08-21T16:15:16;2.27;;;2.17;;
8361;SDS011;4218;48.326;14.304;2022-08-21T16:17:43;2.50;;;2.30;;
8361;SDS011;4218;48.326;14.304;2022-08-21T16:20:13;2.03;;;1.93;;
8361;SDS011;4218;48.326;14.304;2022-08-21T16:22:41;2.00;;;1.90;;
8361;SDS011;4218;48.326;14.304;2022-08-21T16:25:07;2.30;;;2.20;;
8361;SDS011;4218;48.326;14.304;2022-08-21T16:27:33;2.00;;;1.90;;
8361;SDS011;4218;48.326;14.304;2022-08-21T16:29:59;2.30;;;2.20;;